Time;durP1;ratioP1;P1;durP2;ratioP2;P2;SDS_P1;SDS_P2;PMS_P1;PMS_P2;Temp;Humidity;BMP_temperature;BMP_pressure;BME280_temperature;BME280_humidity;BME280_pressure;Samples;Min_cycle;Max_cycle;Signal;HPM_P1;HPM_P2
2022/07/18 00:01:51;;;;;;;4.97;3.47;;;18.70;99.90;;;;;;5073250;28;20455;-76
2022/07/18 00:04:17;;;;;;;4.43;3.70;;;18.70;99.90;;;;;;5073248;28;20445;-75
2022/07/18 00:06:45;;;;;;;3.53;3.00;;;18.60;99.90;;;;;;5072965;28;20815;-75
2022/07/18 00:09:12;;;;;;;3.67;3.00;;;18.60;99.90;;;;;;5072801;28;20448;-76
2022/07/18 00:11:39;;;;;;;4.33;3.40;;;18.60;99.90;;;;;;5072765;28;20906;-76
2022/07/18 00:14:05;;;;;;;6.53;3.30;;;18.60;99.90;;;;;;5072914;28;20445;-78
2022/07/18 00:16:32;;;;;;;5.43;3.47;;;18.50;99.90;;;;;;5072774;28;20437;-78
2022/07/18 00:19:00;;;;;;;6.60;3.23;;;18.60;99.90;;;;;;5072276;28;20484;-75
2022/07/18 00:21:27;;;;;;;6.63;3.30;;;18.60;99.90;;;;;;5072374;28;20539;-76
2022/07/18 00:23:55;;;;;;;4.33;3.90;;;18.60;99.90;;;;;;5072444;28;20478;-76
2022/07/18 00:26:22;;;;;;;5.67;3.70;;;18.60;99.90;;;;;;5072324;28;20484;-76
2022/07/18 00:28:48;;;;;;;3.70;3.40;;;18.50;99.90;;;;;;5072022;28;21044;-76
2022/07/18 00:31:15;;;;;;;5.63;3.67;;;18.50;99.90;;;;;;5072345;28;20455;-75
2022/07/18 00:33:42;;;;;;;4.90;3.33;;;18.50;99.90;;;;;;5072377;28;20502;-75
2022/07/18 00:36:09;;;;;;;3.60;3.23;;;18.60;99.90;;;;;;5072962;28;20464;-75
2022/07/18 00:38:35;;;;;;;3.30;2.93;;;18.60;99.90;;;;;;5071937;28;20476;-75
2022/07/18 00:41:04;;;;;;;4.13;2.97;;;18.60;99.90;;;;;;5072166;28;20964;-75
2022/07/18 00:43:31;;;;;;;3.70;3.17;;;18.60;99.90;;;;;;5072137;28;20850;-75
2022/07/18 00:45:58;;;;;;;5.23;3.60;;;18.60;99.90;;;;;;5072231;28;20954;-75
2022/07/18 00:48:25;;;;;;;3.83;2.90;;;18.70;99.90;;;;;;5072080;28;20479;-75
2022/07/18 00:50:51;;;;;;;3.33;2.87;;;18.60;99.90;;;;;;5073957;28;20539;-76
2022/07/18 00:53:18;;;;;;;6.20;3.83;;;18.60;99.90;;;;;;5075948;28;20448;-75
2022/07/18 00:55:46;;;;;;;7.50;4.17;;;18.60;99.90;;;;;;5075474;28;20452;-75
2022/07/18 00:58:15;;;;;;;5.20;4.70;;;18.50;99.90;;;;;;5075855;28;20472;-75
2022/07/18 01:03:27;;;;;;;7.20;3.50;;;18.40;99.90;;;;;;5075675;28;20408;-75
2022/07/18 01:05:54;;;;;;;3.33;3.03;;;18.40;99.90;;;;;;5075364;28;20480;-75
2022/07/18 01:08:21;;;;;;;5.13;2.70;;;18.40;99.90;;;;;;5075760;28;20494;-75
2022/07/18 01:10:48;;;;;;;3.80;3.10;;;18.30;99.90;;;;;;5075673;28;20448;-75
2022/07/18 01:13:16;;;;;;;3.47;3.17;;;18.30;99.90;;;;;;5076226;28;20437;-75
2022/07/18 01:15:42;;;;;;;3.70;2.70;;;18.30;99.90;;;;;;5075180;28;20483;-75
2022/07/18 01:18:09;;;;;;;5.80;2.90;;;18.30;99.90;;;;;;5075346;28;20495;-75
2022/07/18 01:20:37;;;;;;;5.83;2.80;;;18.20;99.90;;;;;;5075415;28;20440;-75
2022/07/18 01:23:04;;;;;;;2.90;2.57;;;18.20;99.90;;;;;;5075034;28;20453;-75
2022/07/18 01:25:30;;;;;;;4.20;3.40;;;18.20;99.90;;;;;;5075211;28;20495;-75
2022/07/18 01:27:57;;;;;;;4.30;3.90;;;18.00;99.90;;;;;;5075233;28;20473;-75
2022/07/18 01:30:25;;;;;;;5.37;3.30;;;17.90;99.90;;;;;;5075227;28;20453;-75
2022/07/18 01:32:56;;;;;;;3.50;3.20;;;17.80;99.90;;;;;;5075041;28;20445;-75
2022/07/18 01:35:23;;;;;;;6.10;3.70;;;17.70;99.90;;;;;;5075149;28;20426;-75
2022/07/18 01:37:52;;;;;;;5.17;3.03;;;17.70;99.90;;;;;;5075054;28;20468;-76
2022/07/18 01:40:19;;;;;;;3.83;3.00;;;17.70;99.90;;;;;;5076207;28;20456;-76
2022/07/18 01:42:46;;;;;;;3.70;2.77;;;17.70;99.90;;;;;;5076594;28;20449;-75
2022/07/18 01:45:12;;;;;;;4.83;3.30;;;17.70;99.90;;;;;;5075249;28;20845;-76
2022/07/18 01:47:39;;;;;;;5.20;2.73;;;17.70;99.90;;;;;;5075102;28;20473;-76
2022/07/18 01:50:07;;;;;;;5.20;2.30;;;17.80;99.90;;;;;;5074987;28;20830;-77
2022/07/18 01:52:34;;;;;;;4.60;2.97;;;17.80;99.90;;;;;;5074827;28;20440;-76
2022/07/18 01:55:02;;;;;;;3.63;3.13;;;17.80;99.90;;;;;;5074946;28;20449;-76
2022/07/18 01:57:29;;;;;;;3.20;2.50;;;17.90;99.90;;;;;;5074609;28;20812;-76
2022/07/18 01:59:56;;;;;;;4.20;3.13;;;17.80;99.90;;;;;;5074574;28;20457;-76
2022/07/18 02:02:22;;;;;;;4.40;2.90;;;17.60;99.90;;;;;;5074503;28;20769;-77
2022/07/18 02:05:02;;;;;;;5.17;2.80;;;17.50;99.90;;;;;;5074559;28;20524;-76
2022/07/18 02:07:31;;;;;;;3.63;3.20;;;17.30;99.90;;;;;;5074215;28;20567;-76
2022/07/18 02:09:59;;;;;;;5.47;2.90;;;17.30;99.90;;;;;;5074630;28;20465;-76
2022/07/18 02:12:27;;;;;;;6.13;3.43;;;17.20;99.90;;;;;;5074143;28;20449;-76
2022/07/18 02:14:54;;;;;;;4.03;3.20;;;17.10;99.90;;;;;;5074303;28;20452;-76
2022/07/18 02:17:21;;;;;;;3.83;2.93;;;17.10;99.90;;;;;;5074423;28;20844;-76
2022/07/18 02:19:48;;;;;;;3.20;2.90;;;17.00;99.90;;;;;;5074526;28;20429;-76
2022/07/18 02:22:14;;;;;;;5.57;3.53;;;17.00;99.90;;;;;;5074267;28;20452;-76
2022/07/18 02:24:42;;;;;;;4.80;3.47;;;17.00;99.90;;;;;;5074046;28;20445;-76
2022/07/18 02:27:08;;;;;;;6.00;3.27;;;17.00;99.90;;;;;;5073854;28;20496;-76
2022/07/18 02:29:36;;;;;;;4.67;3.07;;;17.00;99.90;;;;;;5073688;28;20943;-76
2022/07/18 02:32:03;;;;;;;5.23;3.13;;;16.90;99.90;;;;;;5073962;28;20916;-76
2022/07/18 02:34:30;;;;;;;3.57;3.27;;;16.80;99.90;;;;;;5073838;28;20444;-76
2022/07/18 02:36:57;;;;;;;4.97;2.63;;;16.80;99.90;;;;;;5073531;28;20461;-76
2022/07/18 02:39:23;;;;;;;3.50;3.13;;;16.70;99.90;;;;;;5073869;28;20445;-76
2022/07/18 02:41:50;;;;;;;4.23;2.93;;;16.60;99.90;;;;;;5074542;28;20805;-77
2022/07/18 02:44:17;;;;;;;4.50;2.87;;;16.60;99.90;;;;;;5073406;28;20445;-76
2022/07/18 02:46:45;;;;;;;3.53;3.23;;;16.70;99.90;;;;;;5073678;28;20480;-76
2022/07/18 02:49:26;;;;;;;2.87;2.67;;;16.70;99.90;;;;;;5073731;28;20459;-76
2022/07/18 02:51:53;;;;;;;3.13;2.83;;;16.70;99.90;;;;;;5074151;28;20444;-76
2022/07/18 02:54:20;;;;;;;4.10;2.73;;;16.60;99.90;;;;;;5073707;28;20842;-76
2022/07/18 02:56:47;;;;;;;4.83;3.20;;;16.80;99.90;;;;;;5073503;28;20519;-76
2022/07/18 02:59:14;;;;;;;5.47;3.40;;;16.50;99.90;;;;;;5073406;28;20460;-76
2022/07/18 03:01:40;;;;;;;3.93;2.77;;;16.60;99.90;;;;;;5073036;28;20456;-76
2022/07/18 03:04:08;;;;;;;3.67;3.13;;;16.60;99.90;;;;;;5073227;28;20491;-76
2022/07/18 03:06:35;;;;;;;3.27;2.97;;;16.50;99.90;;;;;;5072654;28;20480;-76
2022/07/18 03:09:02;;;;;;;3.97;2.20;;;16.60;99.90;;;;;;5073534;28;20423;-75
2022/07/18 03:11:29;;;;;;;5.37;3.13;;;16.70;99.90;;;;;;5073650;28;20445;-75
2022/07/18 03:13:56;;;;;;;3.20;2.90;;;16.60;99.90;;;;;;5073424;28;20818;-77
2022/07/18 03:16:22;;;;;;;3.00;2.80;;;16.70;99.90;;;;;;5073318;28;20456;-76
2022/07/18 03:18:49;;;;;;;3.37;3.07;;;16.80;99.90;;;;;;5073628;28;20515;-76
2022/07/18 03:21:17;;;;;;;3.97;3.20;;;16.80;99.90;;;;;;5073791;28;20456;-76
2022/07/18 03:23:44;;;;;;;3.70;2.90;;;16.80;99.90;;;;;;5073093;28;20959;-76
2022/07/18 03:26:11;;;;;;;2.90;2.60;;;16.70;99.90;;;;;;5073001;28;20496;-77
2022/07/18 03:28:37;;;;;;;4.97;3.13;;;16.60;99.90;;;;;;5072666;28;20471;-76
2022/07/18 03:31:04;;;;;;;4.03;2.83;;;16.60;99.90;;;;;;5072923;28;20527;-76
2022/07/18 03:33:31;;;;;;;3.47;3.00;;;16.50;99.90;;;;;;5072617;28;20448;-76
2022/07/18 03:35:58;;;;;;;4.10;2.80;;;16.50;99.90;;;;;;5072960;28;20456;-76
2022/07/18 03:38:26;;;;;;;3.90;3.03;;;16.40;99.90;;;;;;5072910;28;20469;-76
2022/07/18 03:40:53;;;;;;;4.63;3.27;;;16.30;99.90;;;;;;5072601;28;20449;-76
2022/07/18 03:43:19;;;;;;;3.97;2.90;;;16.20;99.90;;;;;;5072844;28;20445;-76
2022/07/18 03:45:47;;;;;;;11.90;3.40;;;16.20;99.90;;;;;;5072953;28;20875;-76
2022/07/18 03:48:14;;;;;;;3.70;2.93;;;16.10;99.90;;;;;;5072917;28;20831;-76
2022/07/18 03:50:41;;;;;;;3.20;3.00;;;16.10;99.90;;;;;;5072563;28;20515;-76
2022/07/18 03:53:08;;;;;;;3.53;2.80;;;16.20;99.90;;;;;;5072992;28;20825;-76
2022/07/18 03:55:36;;;;;;;5.50;3.30;;;16.20;99.90;;;;;;5072773;28;20455;-76
2022/07/18 03:58:02;;;;;;;3.40;3.10;;;16.30;99.90;;;;;;5072363;28;20983;-76
2022/07/18 04:00:29;;;;;;;5.67;2.80;;;16.40;99.90;;;;;;5072800;28;20440;-76
2022/07/18 04:02:56;;;;;;;4.93;3.10;;;16.40;99.90;;;;;;5072909;28;20900;-76
2022/07/18 04:05:23;;;;;;;7.47;3.37;;;16.40;99.90;;;;;;5073185;28;20448;-76
2022/07/18 04:07:49;;;;;;;4.47;3.13;;;16.40;99.90;;;;;;5073169;28;20853;-76
2022/07/18 04:10:16;;;;;;;3.20;2.90;;;16.50;99.90;;;;;;5072670;28;20455;-76
2022/07/18 04:12:48;;;;;;;6.10;3.30;;;16.50;99.90;;;;;;5072928;28;20815;-76
2022/07/18 04:15:15;;;;;;;4.77;3.40;;;16.60;99.90;;;;;;5072614;28;20449;-76
2022/07/18 04:17:42;;;;;;;3.93;2.90;;;16.60;99.90;;;;;;5087876;22;20510;-78
2022/07/18 04:20:10;;;;;;;6.20;3.30;;;16.70;99.90;;;;;;5074791;28;20448;-78
2022/07/18 04:22:48;;;;;;;4.78;2.95;;;16.70;99.90;;;;;;5073952;28;20487;-78
2022/07/18 04:25:15;;;;;;;4.10;3.70;;;16.80;99.90;;;;;;5080030;28;20209;-78
2022/07/18 04:27:41;;;;;;;4.90;3.60;;;17.00;99.90;;;;;;5085701;28;20488;-78
2022/07/18 04:30:10;;;;;;;5.20;3.20;;;17.10;99.90;;;;;;5083964;28;20444;-78
2022/07/18 04:32:37;;;;;;;4.73;4.13;;;17.10;99.90;;;;;;5080125;28;20455;-78
2022/07/18 04:35:05;;;;;;;6.53;3.37;;;17.00;99.90;;;;;;5080009;28;20440;-78
2022/07/18 04:37:32;;;;;;;5.23;3.23;;;16.90;99.90;;;;;;5077597;28;20465;-78
2022/07/18 04:39:59;;;;;;;4.60;3.33;;;16.90;99.90;;;;;;5079820;28;20463;-78
2022/07/18 04:42:26;;;;;;;8.30;4.00;;;16.90;99.90;;;;;;5079569;28;20869;-78
2022/07/18 04:44:54;;;;;;;4.95;3.53;;;16.90;99.90;;;;;;5078708;28;20434;-78
2022/07/18 04:47:22;;;;;;;5.33;3.70;;;17.10;99.90;;;;;;5078868;28;20229;-78
2022/07/18 04:49:48;;;;;;;4.20;3.80;;;17.00;99.90;;;;;;5078846;28;20471;-78
2022/07/18 04:52:15;;;;;;;3.80;3.50;;;17.10;99.90;;;;;;5077340;28;20441;-77
2022/07/18 04:54:42;;;;;;;5.00;2.97;;;17.10;99.90;;;;;;5078593;28;20417;-77
2022/07/18 04:57:11;;;;;;;4.87;3.37;;;17.20;99.90;;;;;;5079325;28;20440;-77
2022/07/18 04:59:37;;;;;;;6.10;3.67;;;17.20;99.90;;;;;;5095901;28;20467;-77
2022/07/18 05:02:04;;;;;;;3.27;2.93;;;17.20;99.90;;;;;;5091897;28;20441;-78
2022/07/18 05:04:32;;;;;;;3.80;3.20;;;17.20;99.90;;;;;;5082902;28;20441;-78
2022/07/18 05:06:59;;;;;;;5.37;3.70;;;17.30;99.90;;;;;;5081008;28;20476;-78
2022/07/18 05:09:26;;;;;;;4.53;3.30;;;17.30;99.90;;;;;;5083393;28;20481;-78
2022/07/18 05:11:53;;;;;;;7.57;3.53;;;17.40;99.90;;;;;;5082604;28;20456;-78
2022/07/18 05:14:20;;;;;;;3.47;3.07;;;17.50;99.90;;;;;;5079477;28;20448;-78
2022/07/18 05:16:47;;;;;;;6.80;3.13;;;17.50;99.90;;;;;;5078291;28;20444;-78
2022/07/18 05:19:15;;;;;;;7.27;6.00;;;17.50;99.90;;;;;;5078024;28;20913;-78
2022/07/18 05:21:43;;;;;;;5.53;3.47;;;17.70;99.90;;;;;;5076078;28;20453;-77
2022/07/18 05:24:10;;;;;;;9.17;2.80;;;17.70;99.90;;;;;;5076344;28;20796;-78
2022/07/18 05:26:36;;;;;;;4.77;3.07;;;17.90;99.90;;;;;;5076336;28;20829;-78
2022/07/18 05:29:04;;;;;;;5.70;3.47;;;17.90;99.90;;;;;;5079094;28;21019;-78
2022/07/18 05:31:30;;;;;;;4.90;3.40;;;17.90;99.90;;;;;;5077965;28;20456;-77
2022/07/18 05:33:57;;;;;;;5.70;3.40;;;17.90;99.90;;;;;;5077630;28;20790;-78
2022/07/18 05:36:24;;;;;;;9.70;4.00;;;18.10;99.90;;;;;;5078008;28;20449;-78
2022/07/18 05:38:52;;;;;;;5.73;3.77;;;18.20;99.90;;;;;;5078439;28;20873;-78
2022/07/18 05:41:18;;;;;;;5.60;4.07;;;18.30;99.90;;;;;;5075841;28;20448;-79
2022/07/18 05:43:45;;;;;;;3.27;3.00;;;18.40;99.90;;;;;;5076273;28;20452;-78
2022/07/18 05:46:12;;;;;;;6.50;3.83;;;18.50;99.90;;;;;;5075564;28;20452;-78
2022/07/18 05:48:39;;;;;;;6.30;3.57;;;18.60;99.90;;;;;;5075654;28;20489;-77
2022/07/18 05:51:07;;;;;;;11.70;5.10;;;18.70;99.90;;;;;;5075847;28;20475;-77
2022/07/18 05:53:34;;;;;;;5.10;4.33;;;18.80;99.90;;;;;;5075865;28;20535;-77
2022/07/18 05:56:02;;;;;;;4.17;3.70;;;18.90;99.90;;;;;;5079973;28;20452;-78
2022/07/18 05:58:29;;;;;;;9.10;3.90;;;19.00;99.90;;;;;;5091242;28;20450;-77
2022/07/18 06:00:55;;;;;;;4.80;4.00;;;19.10;99.90;;;;;;5091479;28;20444;-77
2022/07/18 06:03:22;;;;;;;4.33;2.80;;;19.20;99.90;;;;;;5076507;28;20445;-77
2022/07/18 06:05:49;;;;;;;5.47;3.80;;;19.20;99.90;;;;;;5076159;28;20454;-77
2022/07/18 06:08:16;;;;;;;4.27;3.87;;;19.20;99.90;;;;;;5075480;28;20491;-78
2022/07/18 06:10:42;;;;;;;9.20;4.47;;;19.30;99.90;;;;;;5074996;28;20452;-77
2022/07/18 06:13:10;;;;;;;4.40;3.47;;;19.40;99.90;;;;;;5075023;28;20452;-77
2022/07/18 06:15:37;;;;;;;5.97;3.40;;;19.50;99.90;;;;;;5074912;28;20448;-77
2022/07/18 06:18:04;;;;;;;3.00;2.80;;;19.60;99.90;;;;;;5074867;28;20472;-77
2022/07/18 06:20:31;;;;;;;4.23;3.20;;;19.70;99.90;;;;;;5076891;28;20451;-78
2022/07/18 06:22:58;;;;;;;4.30;3.43;;;19.80;99.90;;;;;;5076975;28;20440;-78
2022/07/18 06:25:24;;;;;;;3.80;2.70;;;19.90;99.90;;;;;;5077278;28;20449;-78
2022/07/18 06:27:51;;;;;;;4.57;3.00;;;19.90;99.90;;;;;;5076469;28;20484;-78
2022/07/18 06:30:19;;;;;;;7.27;4.00;;;19.90;99.90;;;;;;5076927;28;20447;-78
2022/07/18 06:32:46;;;;;;;3.60;2.50;;;20.00;99.90;;;;;;5075401;28;20444;-77
2022/07/18 06:35:13;;;;;;;8.93;3.50;;;20.10;99.90;;;;;;5076050;28;20449;-77
2022/07/18 06:37:40;;;;;;;4.53;3.27;;;20.20;99.90;;;;;;5074340;28;20978;-77
2022/07/18 06:40:08;;;;;;;4.43;3.03;;;20.30;99.90;;;;;;5074872;28;20441;-78
2022/07/18 06:42:35;;;;;;;7.50;3.60;;;20.40;99.90;;;;;;5074430;28;20455;-77
2022/07/18 06:45:02;;;;;;;4.83;2.70;;;20.50;99.90;;;;;;5074440;28;20527;-77
2022/07/18 06:47:30;;;;;;;2.97;2.63;;;20.50;99.90;;;;;;5074066;28;20508;-77
2022/07/18 06:49:57;;;;;;;6.50;3.10;;;20.60;99.90;;;;;;5075081;28;20448;-77
2022/07/18 06:52:24;;;;;;;3.73;3.43;;;20.70;99.90;;;;;;5077847;28;20452;-77
2022/07/18 06:54:50;;;;;;;5.47;3.10;;;20.70;99.90;;;;;;5077263;28;20445;-77
2022/07/18 06:57:20;;;;;;;5.10;3.10;;;20.70;99.90;;;;;;5083009;28;20448;-78
2022/07/18 06:59:46;;;;;;;3.60;2.63;;;20.80;99.90;;;;;;5074976;28;20506;-78
2022/07/18 07:02:13;;;;;;;2.57;2.37;;;20.90;99.90;;;;;;5075044;28;20967;-79
2022/07/18 07:04:41;;;;;;;4.07;3.00;;;20.90;99.90;;;;;;5075923;28;20440;-78
2022/07/18 07:07:08;;;;;;;3.90;2.10;;;21.00;99.90;;;;;;5075563;28;20505;-78
2022/07/18 07:09:35;;;;;;;5.50;3.00;;;21.00;99.90;;;;;;5076394;28;20445;-78
2022/07/18 07:12:01;;;;;;;3.10;2.70;;;21.10;99.90;;;;;;5076435;28;20936;-78
2022/07/18 07:14:28;;;;;;;3.10;2.90;;;21.10;99.90;;;;;;5076665;28;20448;-78
2022/07/18 07:16:55;;;;;;;3.50;2.90;;;21.20;99.90;;;;;;5076199;28;20444;-78
2022/07/18 07:19:21;;;;;;;11.47;5.97;;;21.30;99.90;;;;;;5075965;28;20475;-78
2022/07/18 07:21:49;;;;;;;6.70;3.80;;;21.30;99.90;;;;;;5076172;28;20441;-78
2022/07/18 07:24:16;;;;;;;3.80;2.27;;;21.40;99.90;;;;;;5076403;28;20451;-77
2022/07/18 07:26:43;;;;;;;6.27;4.70;;;21.40;99.90;;;;;;5076592;28;20444;-78
2022/07/18 07:29:10;;;;;;;2.83;2.23;;;21.40;99.90;;;;;;5076758;28;20491;-78
2022/07/18 07:31:36;;;;;;;4.93;2.10;;;21.40;99.90;;;;;;5075978;28;20448;-78
2022/07/18 07:34:03;;;;;;;3.73;3.40;;;21.40;99.90;;;;;;5076520;28;20445;-78
2022/07/18 07:36:30;;;;;;;7.50;4.87;;;21.50;99.90;;;;;;5077080;28;20452;-78
2022/07/18 07:38:58;;;;;;;5.97;4.07;;;21.50;99.90;;;;;;5076444;28;20457;-78
2022/07/18 07:41:25;;;;;;;4.50;2.30;;;21.60;99.90;;;;;;5076704;28;20445;-78
2022/07/18 07:43:51;;;;;;;6.60;4.53;;;21.70;99.90;;;;;;5077146;28;20445;-78
2022/07/18 07:46:18;;;;;;;5.10;2.50;;;21.80;99.90;;;;;;5076716;28;20448;-78
2022/07/18 07:48:47;;;;;;;4.10;3.70;;;21.80;99.90;;;;;;5075542;28;20519;-78
2022/07/18 07:51:14;;;;;;;3.27;2.80;;;21.80;99.90;;;;;;5075878;28;20484;-78
2022/07/18 07:53:41;;;;;;;4.43;2.40;;;21.90;99.90;;;;;;5076061;28;20456;-78
2022/07/18 07:56:10;;;;;;;3.97;2.00;;;21.90;99.90;;;;;;5076176;28;20502;-78
2022/07/18 07:58:37;;;;;;;2.67;2.40;;;22.00;99.90;;;;;;5076597;28;20515;-78
2022/07/18 08:01:04;;;;;;;3.83;2.10;;;22.00;99.90;;;;;;5076953;28;20440;-78
2022/07/18 08:03:30;;;;;;;3.50;2.60;;;22.00;99.90;;;;;;5076917;28;20813;-78
2022/07/18 08:05:57;;;;;;;4.40;2.60;;;22.10;99.90;;;;;;5078071;28;20528;-78
2022/07/18 08:08:25;;;;;;;3.50;3.17;;;22.10;99.90;;;;;;5076141;28;20480;-78
2022/07/18 08:10:53;;;;;;;5.57;2.27;;;22.20;99.90;;;;;;5075031;28;20983;-78
2022/07/18 08:13:21;;;;;;;3.40;3.10;;;22.30;99.90;;;;;;5084433;28;20484;-77
2022/07/18 08:15:48;;;;;;;4.37;2.37;;;22.40;99.90;;;;;;5090227;28;20459;-77
2022/07/18 08:18:15;;;;;;;3.93;3.13;;;22.40;99.90;;;;;;5084835;28;20480;-78
2022/07/18 08:20:42;;;;;;;13.43;10.43;;;22.50;99.90;;;;;;5075890;28;20962;-78
2022/07/18 08:23:11;;;;;;;6.57;3.40;;;22.50;99.90;;;;;;5077104;28;20445;-78
2022/07/18 08:25:39;;;;;;;3.10;2.33;;;22.50;99.90;;;;;;5075441;28;20593;-78
2022/07/18 08:28:07;;;;;;;4.83;2.47;;;22.60;99.90;;;;;;5075435;28;20592;-78
2022/07/18 08:30:37;;;;;;;2.40;2.20;;;22.80;99.90;;;;;;5075825;28;20448;-78
2022/07/18 08:33:04;;;;;;;6.13;4.10;;;22.90;99.90;;;;;;5076043;28;20880;-78
2022/07/18 08:35:32;;;;;;;3.73;2.80;;;23.00;99.90;;;;;;5074759;28;20449;-78
2022/07/18 08:37:59;;;;;;;4.10;3.33;;;23.00;99.90;;;;;;5075041;28;20510;-78
2022/07/18 08:40:26;;;;;;;8.40;3.30;;;23.10;99.90;;;;;;5074542;28;20951;-78
2022/07/18 08:42:56;;;;;;;6.43;2.90;;;23.20;99.90;;;;;;5074715;28;20440;-77
2022/07/18 08:45:25;;;;;;;7.93;3.17;;;23.10;99.90;;;;;;5074970;28;20800;-78
2022/07/18 08:47:53;;;;;;;3.30;3.00;;;23.00;99.90;;;;;;5075325;28;20481;-78
2022/07/18 08:50:20;;;;;;;4.90;3.37;;;23.10;99.90;;;;;;5075867;28;20444;-78
2022/07/18 08:52:47;;;;;;;3.90;3.50;;;23.00;99.90;;;;;;5077389;28;20438;-78
2022/07/18 08:55:14;;;;;;;4.40;3.40;;;22.80;99.90;;;;;;5082288;28;20441;-77
2022/07/18 08:57:41;;;;;;;3.40;2.97;;;22.80;99.90;;;;;;5085785;28;20967;-77
2022/07/18 09:00:10;;;;;;;4.70;4.10;;;22.80;99.90;;;;;;5080232;28;20448;-76
2022/07/18 09:02:37;;;;;;;7.53;3.97;;;22.80;99.90;;;;;;5077990;28;20441;-77
2022/07/18 09:05:06;;;;;;;4.03;3.73;;;22.80;99.90;;;;;;5076572;28;20449;-77
2022/07/18 09:07:35;;;;;;;4.07;3.70;;;22.90;99.90;;;;;;5074272;28;20465;-77
2022/07/18 09:10:04;;;;;;;5.70;3.00;;;22.80;99.90;;;;;;5074409;28;20460;-77
2022/07/18 09:12:31;;;;;;;3.43;3.13;;;22.90;99.90;;;;;;5076949;28;20506;-77
2022/07/18 09:15:04;;;;;;;8.23;3.43;;;23.00;99.90;;;;;;5081996;28;20448;-78
2022/07/18 09:17:33;;;;;;;5.30;3.20;;;23.00;99.90;;;;;;5081662;28;20465;-77
2022/07/18 09:20:04;;;;;;;3.90;3.60;;;23.10;99.90;;;;;;5081845;28;20433;-77
2022/07/18 09:22:33;;;;;;;3.13;2.90;;;23.10;99.90;;;;;;5080134;28;20435;-77
2022/07/18 09:25:04;;;;;;;5.70;3.77;;;23.20;99.90;;;;;;5080856;28;20445;-77
2022/07/18 09:27:35;;;;;;;4.60;4.20;;;23.30;99.90;;;;;;5077888;28;20468;-77
2022/07/18 09:30:17;;;;;;;6.33;4.20;;;23.10;99.90;;;;;;5081608;28;20430;-77
2022/07/18 09:32:45;;;;;;;5.63;4.60;;;23.20;99.90;;;;;;5078246;28;20431;-79
2022/07/18 09:35:15;;;;;;;6.40;5.20;;;23.30;99.90;;;;;;5079494;28;20459;-79
2022/07/18 09:37:56;;;;;;;5.33;4.60;;;23.30;99.90;;;;;;5082006;28;20461;-77
2022/07/18 09:40:25;;;;;;;6.53;4.47;;;23.30;99.90;;;;;;5088913;28;20425;-77
2022/07/18 09:42:53;;;;;;;9.90;4.90;;;23.40;99.90;;;;;;5087832;28;20441;-78
2022/07/18 09:45:24;;;;;;;6.10;4.87;;;23.40;99.90;;;;;;5084065;28;20463;-79
2022/07/18 09:47:53;;;;;;;7.47;5.33;;;23.50;99.90;;;;;;5079790;28;20460;-79
2022/07/18 09:50:29;;;;;;;6.17;5.17;;;23.50;99.90;;;;;;5080377;28;20504;-77
2022/07/18 09:53:07;;;;;;;5.43;4.60;;;23.60;99.90;;;;;;5080634;28;20433;-80
2022/07/18 09:55:35;;;;;;;5.23;3.83;;;23.70;99.90;;;;;;5080162;28;20409;-81
2022/07/18 09:58:08;;;;;;;5.40;3.83;;;23.80;99.90;;;;;;5078772;28;20468;-82
2022/07/18 10:00:36;;;;;;;4.23;3.87;;;23.80;99.90;;;;;;5080378;28;20819;-81
2022/07/18 10:03:04;;;;;;;5.60;3.90;;;24.00;99.90;;;;;;5080120;28;20448;-81
2022/07/18 10:05:33;;;;;;;3.93;3.43;;;24.10;99.90;;;;;;5079366;28;20448;-82
2022/07/18 10:08:01;;;;;;;4.33;3.40;;;24.10;99.90;;;;;;5078889;28;20495;-81
2022/07/18 10:10:30;;;;;;;4.13;3.50;;;24.00;99.90;;;;;;5079580;28;20445;-84
2022/07/18 10:12:58;;;;;;;6.17;3.90;;;24.00;99.90;;;;;;5080299;28;20457;-82
2022/07/18 10:15:28;;;;;;;7.80;6.00;;;24.10;99.90;;;;;;5080841;28;20456;-83
2022/07/18 10:17:56;;;;;;;6.07;4.77;;;24.10;99.90;;;;;;5080979;28;20476;-82
2022/07/18 10:20:29;;;;;;;5.47;4.33;;;24.20;99.90;;;;;;5093490;28;20445;-81
2022/07/18 10:22:58;;;;;;;6.50;4.40;;;24.30;99.90;;;;;;5093592;28;20428;-81
2022/07/18 10:25:26;;;;;;;4.30;3.50;;;24.40;99.90;;;;;;5092980;28;20439;-82
2022/07/18 10:28:02;;;;;;;5.53;3.57;;;24.40;99.90;;;;;;5094537;28;20449;-83
2022/07/18 10:30:34;;;;;;;7.70;3.50;;;24.50;99.90;;;;;;5096658;28;20417;-84
2022/07/18 10:33:03;;;;;;;6.33;3.13;;;24.60;99.90;;;;;;5095248;28;20425;-83
2022/07/18 10:36:02;;;;;;;7.57;4.90;;;24.50;99.90;;;;;;5095083;28;20428;-83
2022/07/18 10:38:29;;;;;;;4.50;3.70;;;24.60;99.90;;;;;;5083150;28;20457;-83
2022/07/18 10:43:39;;;;;;;4.33;3.93;;;24.50;99.90;;;;;;5056329;28;20476;-84
2022/07/18 10:46:08;;;;;;;6.90;3.67;;;24.50;99.90;;;;;;5060341;28;20438;-84
2022/07/18 10:48:57;;;;;;;5.03;4.50;;;24.70;99.90;;;;;;5059632;28;20490;-84
2022/07/18 10:51:32;;;;;;;3.70;3.33;;;24.80;99.90;;;;;;5056491;28;21012;-84
2022/07/18 10:54:08;;;;;;;4.83;3.87;;;24.80;99.90;;;;;;5071853;28;20471;-85
2022/07/18 10:57:10;;;;;;;5.10;4.70;;;24.90;99.90;;;;;;5061006;28;20481;-83
2022/07/18 10:59:58;;;;;;;4.60;3.70;;;24.90;99.90;;;;;;5057800;28;20413;-83
2022/07/18 11:02:33;;;;;;;4.63;3.97;;;24.70;99.90;;;;;;5060203;28;20468;-85
2022/07/18 11:05:01;;;;;;;4.00;3.70;;;24.70;99.90;;;;;;5062367;28;20429;-85
2022/07/18 11:07:29;;;;;;;5.03;4.00;;;24.80;99.90;;;;;;5064215;28;20442;-86
2022/07/18 11:09:55;;;;;;;4.03;3.63;;;24.90;99.90;;;;;;5064240;28;20879;-83
2022/07/18 11:12:30;;;;;;;4.13;3.73;;;25.00;99.90;;;;;;5062559;28;20465;-84
2022/07/18 11:15:10;;;;;;;5.43;3.83;;;25.00;99.90;;;;;;5061341;28;20449;-84
2022/07/18 11:18:03;;;;;;;3.97;3.57;;;25.00;99.90;;;;;;5064020;28;20414;-84
2022/07/18 11:20:38;;;;;;;3.47;3.03;;;24.80;98.30;;;;;;5062451;28;20453;-85
2022/07/18 11:23:14;;;;;;;5.20;3.83;;;25.00;99.90;;;;;;5062045;28;20477;-85
2022/07/18 11:25:41;;;;;;;5.47;4.83;;;25.00;99.40;;;;;;5060773;28;20456;-83
2022/07/18 11:28:09;;;;;;;4.00;3.63;;;25.00;99.90;;;;;;5063398;28;20453;-82
2022/07/18 11:30:38;;;;;;;5.30;2.77;;;25.20;99.90;;;;;;5063762;28;20485;-83
2022/07/18 11:33:06;;;;;;;2.67;2.47;;;25.20;98.60;;;;;;5063298;28;20476;-83
2022/07/18 11:35:33;;;;;;;4.33;3.93;;;24.90;99.90;;;;;;5062822;28;20446;-82
2022/07/18 11:38:05;;;;;;;6.60;5.70;;;25.20;99.90;;;;;;5064558;28;20488;-82
2022/07/18 11:40:32;;;;;;;3.90;3.40;;;25.20;98.80;;;;;;5064802;28;20514;-82
2022/07/18 11:42:59;;;;;;;4.63;4.23;;;25.30;98.50;;;;;;5062328;28;20480;-82
2022/07/18 11:45:26;;;;;;;3.60;3.30;;;25.30;98.00;;;;;;5064301;28;20445;-82
2022/07/18 11:47:54;;;;;;;4.30;3.90;;;25.20;99.90;;;;;;5064282;28;20791;-82
2022/07/18 11:50:34;;;;;;;4.53;3.67;;;25.10;99.90;;;;;;5064475;28;20488;-82
2022/07/18 11:53:02;;;;;;;5.00;4.40;;;25.10;99.90;;;;;;5063807;28;20473;-81
2022/07/18 11:55:36;;;;;;;6.77;5.03;;;25.10;99.90;;;;;;5070394;28;20457;-82
2022/07/18 11:58:10;;;;;;;4.83;4.30;;;25.10;99.90;;;;;;5065862;28;20445;-82
2022/07/18 12:00:37;;;;;;;6.03;5.30;;;25.20;96.60;;;;;;5064455;28;20446;-82
2022/07/18 12:03:11;;;;;;;4.77;4.30;;;25.30;99.90;;;;;;5063504;28;20508;-83
2022/07/18 12:05:41;;;;;;;4.50;4.10;;;25.40;99.60;;;;;;5062017;28;20433;-83
2022/07/18 12:08:34;;;;;;;8.90;5.27;;;25.50;99.90;;;;;;5061333;28;20457;-83
2022/07/18 12:11:09;;;;;;;6.23;4.87;;;25.50;97.80;;;;;;5061111;28;20473;-83
2022/07/18 12:13:54;;;;;;;4.27;3.87;;;25.60;97.60;;;;;;5059400;28;20441;-81
2022/07/18 12:16:36;;;;;;;5.00;3.93;;;25.60;94.10;;;;;;5059776;28;20861;-84
2022/07/18 12:19:10;;;;;;;5.47;4.27;;;25.70;96.00;;;;;;5060727;28;20432;-85
2022/07/18 12:21:42;;;;;;;5.00;3.67;;;25.80;96.30;;;;;;5059286;28;20465;-85
2022/07/18 12:24:24;;;;;;;4.90;3.60;;;25.80;96.00;;;;;;5058054;28;20437;-84
2022/07/18 12:27:13;;;;;;;4.20;3.50;;;25.80;95.20;;;;;;5057160;28;20429;-85
2022/07/18 12:30:02;;;;;;;7.83;3.63;;;26.00;96.50;;;;;;5058395;28;20466;-85
2022/07/18 12:32:29;;;;;;;3.90;3.33;;;26.00;92.20;;;;;;5058324;28;20473;-85
2022/07/18 12:34:57;;;;;;;3.90;3.60;;;26.10;91.20;;;;;;5059093;28;20816;-85
2022/07/18 12:37:25;;;;;;;4.90;4.23;;;26.20;95.70;;;;;;5060451;28;20456;-85
2022/07/18 12:39:57;;;;;;;5.30;3.53;;;26.10;94.40;;;;;;5061568;28;20481;-85
2022/07/18 12:42:29;;;;;;;4.17;3.50;;;26.00;93.50;;;;;;5058392;28;21002;-85
2022/07/18 12:44:56;;;;;;;4.30;3.90;;;25.90;93.90;;;;;;5059919;28;20780;-86
2022/07/18 12:47:23;;;;;;;4.27;3.90;;;25.90;95.40;;;;;;5064574;28;20448;-86
2022/07/18 12:49:50;;;;;;;4.30;3.90;;;26.00;93.40;;;;;;5066248;28;20851;-85
2022/07/18 12:52:18;;;;;;;4.07;3.77;;;26.00;94.90;;;;;;5067296;28;20836;-85
2022/07/18 12:54:45;;;;;;;4.03;3.00;;;26.10;94.20;;;;;;5069905;28;20477;-85
2022/07/18 12:57:12;;;;;;;3.17;2.87;;;26.20;96.80;;;;;;5064208;28;20488;-85
2022/07/18 12:59:39;;;;;;;3.50;3.20;;;26.20;93.40;;;;;;5065675;28;20441;-85